createdAt,value
2023-08-29T00:00:27.295Z,2.33
2023-08-29T00:02:54.988Z,2.20
2023-08-29T00:05:22.701Z,2.30
2023-08-29T00:07:51.774Z,2.00
2023-08-29T00:10:19.340Z,1.70
2023-08-29T00:12:46.948Z,2.07
2023-08-29T00:15:14.526Z,1.90
2023-08-29T00:17:42.238Z,2.20
2023-08-29T00:20:11.455Z,2.10
2023-08-29T00:22:39.062Z,2.10
2023-08-29T00:25:09.965Z,2.10
2023-08-29T00:27:37.565Z,2.30
2023-08-29T00:30:05.913Z,2.40
2023-08-29T00:32:34.171Z,2.17
2023-08-29T00:35:04.770Z,2.27
2023-08-29T00:37:32.640Z,2.60
2023-08-29T00:40:00.297Z,2.53
2023-08-29T00:42:30.595Z,2.10
2023-08-29T00:44:58.386Z,2.43
2023-08-29T00:47:26.921Z,1.70
2023-08-29T00:49:54.763Z,2.37
2023-08-29T00:52:22.670Z,2.20
2023-08-29T00:54:50.415Z,1.93
2023-08-29T00:57:18.147Z,2.03
2023-08-29T00:59:47.174Z,2.17
2023-08-29T01:02:14.758Z,2.10
2023-08-29T01:04:42.538Z,2.20
2023-08-29T01:07:10.457Z,1.70
2023-08-29T01:09:39.204Z,1.80
2023-08-29T01:12:13.937Z,1.90
2023-08-29T01:14:49.351Z,2.13
2023-08-29T01:17:24.473Z,2.10
2023-08-29T01:19:54.485Z,1.60
2023-08-29T01:22:31.507Z,1.90
2023-08-29T01:25:10.241Z,1.90
2023-08-29T01:27:40.088Z,1.83
2023-08-29T01:30:09.452Z,2.00
2023-08-29T01:32:38.584Z,2.00
2023-08-29T01:35:09.358Z,2.03
2023-08-29T01:37:37.083Z,2.10
2023-08-29T01:40:05.910Z,2.23
2023-08-29T01:42:33.529Z,2.30
2023-08-29T01:45:02.485Z,1.97
2023-08-29T01:47:30.126Z,1.90
2023-08-29T01:49:58.806Z,2.07
2023-08-29T01:52:28.031Z,2.03
2023-08-29T01:54:55.786Z,2.13
2023-08-29T01:57:25.805Z,1.90
2023-08-29T01:59:55.056Z,2.40
2023-08-29T02:02:24.407Z,2.37
2023-08-29T02:04:52.000Z,2.27
2023-08-29T02:07:20.670Z,2.03
2023-08-29T02:09:48.251Z,2.43
2023-08-29T02:12:15.859Z,2.27
2023-08-29T02:14:42.461Z,2.47
2023-08-29T02:17:10.203Z,2.47
2023-08-29T02:19:40.203Z,2.00
2023-08-29T02:22:07.818Z,2.10
2023-08-29T02:24:36.036Z,2.57
2023-08-29T02:27:03.672Z,2.07
2023-08-29T02:29:31.231Z,2.57
2023-08-29T02:31:58.798Z,2.50
2023-08-29T02:34:26.514Z,2.27
2023-08-29T02:36:55.846Z,2.00
2023-08-29T02:39:23.501Z,2.13
2023-08-29T02:41:52.505Z,1.80
2023-08-29T02:44:20.122Z,2.20
2023-08-29T02:46:47.774Z,2.10
2023-08-29T02:49:16.309Z,2.40
2023-08-29T02:51:44.038Z,2.53
2023-08-29T02:54:13.023Z,2.10
2023-08-29T02:56:40.815Z,2.33
2023-08-29T02:59:08.572Z,2.27
2023-08-29T03:01:36.161Z,2.20
2023-08-29T03:04:04.960Z,2.60
2023-08-29T03:06:32.727Z,2.17
2023-08-29T03:09:00.444Z,2.10
2023-08-29T03:11:29.942Z,2.37
2023-08-29T03:13:59.399Z,2.23
2023-08-29T03:16:27.132Z,2.90
2023-08-29T03:18:54.937Z,2.63
2023-08-29T03:21:22.528Z,2.67
2023-08-29T03:23:51.016Z,2.17
2023-08-29T03:26:18.622Z,2.40
2023-08-29T03:28:47.634Z,2.47
2023-08-29T03:31:16.632Z,3.27
2023-08-29T03:33:45.025Z,2.93
2023-08-29T03:36:13.222Z,2.67
2023-08-29T03:38:42.053Z,2.37
2023-08-29T03:41:10.015Z,2.97
2023-08-29T03:43:38.249Z,2.90
2023-08-29T03:46:08.853Z,3.27
2023-08-29T03:48:38.294Z,3.57
2023-08-29T03:51:08.173Z,3.20
2023-08-29T03:53:37.073Z,2.80
2023-08-29T03:56:08.233Z,3.30
2023-08-29T03:58:36.602Z,3.50
2023-08-29T04:01:05.750Z,3.50
2023-08-29T04:03:35.410Z,3.80
2023-08-29T04:06:04.369Z,3.20
2023-08-29T04:08:32.105Z,3.77
2023-08-29T04:10:59.798Z,2.83
2023-08-29T04:13:27.603Z,3.30
2023-08-29T04:15:56.505Z,4.03
2023-08-29T04:18:24.544Z,3.60
2023-08-29T04:20:53.496Z,3.80
2023-08-29T04:23:21.121Z,3.10
2023-08-29T04:25:48.797Z,2.63
2023-08-29T04:28:21.286Z,4.00
2023-08-29T04:30:48.971Z,3.97
2023-08-29T04:33:16.552Z,3.83
2023-08-29T04:35:44.249Z,2.93
2023-08-29T04:38:13.173Z,3.13
2023-08-29T04:40:40.749Z,3.07
2023-08-29T04:43:08.357Z,3.33
2023-08-29T04:45:36.346Z,3.87
2023-08-29T04:48:04.600Z,4.60
2023-08-29T04:50:32.579Z,3.17
2023-08-29T04:53:00.660Z,3.70
2023-08-29T04:55:30.035Z,2.90
2023-08-29T04:57:57.955Z,3.90
2023-08-29T05:00:25.753Z,3.80
2023-08-29T05:02:53.463Z,3.10
2023-08-29T05:05:21.169Z,3.27
2023-08-29T05:07:48.934Z,2.90
2023-08-29T05:10:16.902Z,3.50
2023-08-29T05:12:46.524Z,3.70
2023-08-29T05:15:14.136Z,3.67
2023-08-29T05:17:41.761Z,3.50
2023-08-29T05:20:11.145Z,4.80
2023-08-29T05:22:39.040Z,3.83
2023-08-29T05:25:07.777Z,3.60
2023-08-29T05:27:35.974Z,4.30
2023-08-29T05:30:06.947Z,4.07
2023-08-29T05:32:34.535Z,4.30
2023-08-29T05:35:02.148Z,3.30
2023-08-29T05:37:29.752Z,3.93
2023-08-29T05:39:57.379Z,4.20
2023-08-29T05:42:25.088Z,4.40
2023-08-29T05:44:52.664Z,4.47
2023-08-29T05:47:21.578Z,4.73
2023-08-29T05:49:49.129Z,3.80
2023-08-29T05:52:16.735Z,4.50
2023-08-29T05:54:45.332Z,4.20
2023-08-29T05:57:12.893Z,3.50
2023-08-29T05:59:40.580Z,4.43
2023-08-29T06:02:08.244Z,4.40
2023-08-29T06:04:38.652Z,4.63
2023-08-29T06:07:07.024Z,4.67
2023-08-29T06:09:34.840Z,4.13
2023-08-29T06:12:02.450Z,3.93
2023-08-29T06:14:30.067Z,6.00
2023-08-29T06:16:58.739Z,4.90
2023-08-29T06:19:26.609Z,5.30
2023-08-29T06:21:55.563Z,5.57
2023-08-29T06:24:23.131Z,6.13
2023-08-29T06:26:51.169Z,5.70
2023-08-29T06:29:18.767Z,4.07
2023-08-29T06:31:46.329Z,5.20
2023-08-29T06:34:13.966Z,5.33
2023-08-29T06:36:42.781Z,5.70
2023-08-29T06:39:11.729Z,5.50
2023-08-29T06:41:39.332Z,5.40
2023-08-29T06:44:08.231Z,6.73
2023-08-29T06:46:35.921Z,6.13
2023-08-29T06:49:05.762Z,5.30
2023-08-29T06:51:33.385Z,5.43
2023-08-29T06:54:00.941Z,6.23
2023-08-29T06:56:29.854Z,5.67
2023-08-29T06:58:57.443Z,6.57
2023-08-29T07:01:25.297Z,6.40
2023-08-29T07:03:52.955Z,7.50
2023-08-29T07:06:20.560Z,6.70
2023-08-29T07:08:48.834Z,7.17
2023-08-29T07:11:16.427Z,6.10
2023-08-29T07:13:45.350Z,6.50
2023-08-29T07:16:13.155Z,6.27
2023-08-29T07:18:41.009Z,6.00
2023-08-29T07:21:10.872Z,6.43
2023-08-29T07:23:38.577Z,6.30
2023-08-29T07:26:06.486Z,6.47
2023-08-29T07:28:34.103Z,7.33
2023-08-29T07:31:03.312Z,6.30
2023-08-29T07:33:31.466Z,5.63
2023-08-29T07:35:59.206Z,5.50
2023-08-29T07:38:26.795Z,6.20
2023-08-29T07:40:54.525Z,6.00
2023-08-29T07:43:22.780Z,6.77
2023-08-29T07:45:54.044Z,6.10
2023-08-29T07:48:23.093Z,5.80
2023-08-29T07:50:50.671Z,5.80
2023-08-29T07:53:18.323Z,6.60
2023-08-29T07:55:47.145Z,5.80
2023-08-29T07:58:14.781Z,4.87
2023-08-29T08:00:43.522Z,5.30
2023-08-29T08:03:11.187Z,5.33
2023-08-29T08:05:40.078Z,5.17
2023-08-29T08:08:08.162Z,4.97
2023-08-29T08:10:36.092Z,5.10
2023-08-29T08:13:04.929Z,4.77
2023-08-29T08:15:32.549Z,5.17
2023-08-29T08:18:00.207Z,4.73
2023-08-29T08:20:27.861Z,5.20
2023-08-29T08:22:56.827Z,4.40
2023-08-29T08:25:24.671Z,4.13
2023-08-29T08:27:52.474Z,4.10
2023-08-29T08:30:20.301Z,4.23
2023-08-29T08:32:47.888Z,3.37
2023-08-29T08:35:15.494Z,3.37
2023-08-29T08:37:43.079Z,3.40
2023-08-29T08:40:13.956Z,3.17
2023-08-29T08:42:41.702Z,3.00
2023-08-29T08:45:10.322Z,2.80
2023-08-29T08:47:38.948Z,3.17
2023-08-29T08:50:09.562Z,2.67
2023-08-29T08:52:38.005Z,3.00
2023-08-29T08:55:06.549Z,2.70
2023-08-29T08:57:36.212Z,2.10
2023-08-29T09:00:05.060Z,2.23
2023-08-29T09:02:34.128Z,2.20
2023-08-29T09:05:01.728Z,2.53
2023-08-29T09:07:29.334Z,2.10
2023-08-29T09:10:12.819Z,1.60
2023-08-29T09:12:53.017Z,1.77
2023-08-29T09:15:21.491Z,1.90
2023-08-29T09:17:50.522Z,1.77
2023-08-29T09:20:18.731Z,2.10
2023-08-29T09:22:47.522Z,1.50
2023-08-29T09:25:15.675Z,1.80
2023-08-29T09:27:44.516Z,1.70
2023-08-29T09:30:15.198Z,1.80
2023-08-29T09:32:44.753Z,1.60
2023-08-29T09:35:16.795Z,1.50
2023-08-29T09:37:51.892Z,1.30
2023-08-29T09:40:31.898Z,1.40
2023-08-29T09:43:06.721Z,2.47
2023-08-29T09:45:38.776Z,1.83
2023-08-29T09:48:09.359Z,2.17
2023-08-29T09:50:38.644Z,1.80
2023-08-29T09:53:07.383Z,1.53
2023-08-29T09:55:41.288Z,1.50
2023-08-29T09:58:10.702Z,1.40
2023-08-29T10:00:42.464Z,1.70
2023-08-29T10:03:11.898Z,1.30
2023-08-29T10:05:42.333Z,1.40
2023-08-29T10:08:19.040Z,1.37
2023-08-29T10:10:46.653Z,1.57
2023-08-29T10:13:15.800Z,1.70
2023-08-29T10:15:47.659Z,1.67
2023-08-29T10:18:15.967Z,1.53
2023-08-29T10:20:45.253Z,1.30
2023-08-29T10:23:14.668Z,1.50
2023-08-29T10:25:43.048Z,1.13
2023-08-29T10:28:13.460Z,1.43
2023-08-29T10:30:45.199Z,1.30
2023-08-29T10:33:13.895Z,1.53
2023-08-29T10:35:42.243Z,1.67
2023-08-29T10:38:15.082Z,1.53
2023-08-29T10:40:44.582Z,1.70
2023-08-29T10:43:20.120Z,1.77
2023-08-29T10:45:57.349Z,1.40
2023-08-29T10:48:56.601Z,1.40
2023-08-29T10:51:26.249Z,1.30
2023-08-29T10:53:57.867Z,1.80
2023-08-29T10:56:29.290Z,1.43
2023-08-29T10:58:57.434Z,1.50
2023-08-29T11:01:33.032Z,1.43
2023-08-29T11:04:04.834Z,1.50
2023-08-29T11:06:54.269Z,1.43
2023-08-29T11:09:23.031Z,1.57
2023-08-29T11:12:10.834Z,1.50
2023-08-29T11:14:50.782Z,1.70
2023-08-29T11:17:24.059Z,1.33
2023-08-29T11:19:57.620Z,1.90
2023-08-29T11:22:27.110Z,1.67
2023-08-29T11:24:56.616Z,1.70
2023-08-29T11:27:24.689Z,1.50
2023-08-29T11:30:05.046Z,1.67
2023-08-29T11:32:39.287Z,1.57
2023-08-29T11:35:08.990Z,1.60
2023-08-29T11:37:36.546Z,1.60
2023-08-29T11:40:15.061Z,1.53
2023-08-29T11:43:03.177Z,1.53
2023-08-29T11:45:46.381Z,1.63
2023-08-29T11:48:23.238Z,1.43
2023-08-29T11:50:55.273Z,2.60
2023-08-29T11:53:24.071Z,1.77
2023-08-29T11:55:52.091Z,1.93
2023-08-29T11:58:20.957Z,2.33
2023-08-29T12:00:50.912Z,1.67
2023-08-29T12:03:21.990Z,1.97
2023-08-29T12:05:49.705Z,2.07
2023-08-29T12:08:18.739Z,2.30
2023-08-29T12:10:53.816Z,1.80
2023-08-29T12:13:22.746Z,2.07
2023-08-29T12:15:50.606Z,2.00
2023-08-29T12:18:23.005Z,2.53
2023-08-29T12:20:51.047Z,2.10
2023-08-29T12:23:29.804Z,1.80
2023-08-29T12:25:59.436Z,2.00
2023-08-29T12:28:27.137Z,1.80
2023-08-29T12:30:57.732Z,1.70
2023-08-29T12:33:25.711Z,1.83
2023-08-29T12:35:53.312Z,1.93
2023-08-29T12:38:21.330Z,1.50
2023-08-29T12:40:50.406Z,1.70
2023-08-29T12:43:18.507Z,1.77
2023-08-29T12:45:57.967Z,1.70
2023-08-29T12:48:28.261Z,2.13
2023-08-29T12:50:56.138Z,1.83
2023-08-29T12:53:23.797Z,2.30
2023-08-29T12:55:53.317Z,2.27
2023-08-29T12:58:20.900Z,2.43
2023-08-29T13:00:48.963Z,2.10
2023-08-29T13:03:16.578Z,1.73
2023-08-29T13:05:44.875Z,1.90
2023-08-29T13:08:12.538Z,1.90
2023-08-29T13:10:40.366Z,1.80
2023-08-29T13:13:09.320Z,2.33
2023-08-29T13:15:49.871Z,1.70
2023-08-29T13:18:22.637Z,1.60
2023-08-29T13:20:50.244Z,1.73
2023-08-29T13:23:17.907Z,1.70
2023-08-29T13:25:45.645Z,1.67
2023-08-29T13:28:15.130Z,1.50
2023-08-29T13:30:42.724Z,1.57
2023-08-29T13:33:10.338Z,1.80
2023-08-29T13:35:38.054Z,1.60
2023-08-29T13:38:06.020Z,1.83
2023-08-29T13:40:33.926Z,1.40
2023-08-29T13:43:01.543Z,1.60
2023-08-29T13:45:30.907Z,1.60
2023-08-29T13:47:58.741Z,1.73
2023-08-29T13:50:26.339Z,1.77
2023-08-29T13:52:53.892Z,1.40
2023-08-29T13:55:21.562Z,1.83
2023-08-29T13:57:49.160Z,1.50
2023-08-29T14:00:17.810Z,1.50
2023-08-29T14:02:48.183Z,1.30
2023-08-29T14:05:16.297Z,1.33
2023-08-29T14:07:44.717Z,1.10
2023-08-29T14:10:12.320Z,1.10
2023-08-29T14:12:39.880Z,1.10
2023-08-29T14:15:08.648Z,0.90
2023-08-29T14:17:36.602Z,1.00
2023-08-29T14:20:07.472Z,1.20
2023-08-29T14:22:35.054Z,1.30
2023-08-29T14:25:02.915Z,1.40
2023-08-29T14:27:30.551Z,1.00
2023-08-29T14:29:58.140Z,1.20
2023-08-29T14:32:25.819Z,1.30
2023-08-29T14:34:53.635Z,1.03
2023-08-29T14:37:23.181Z,0.97
2023-08-29T14:39:51.400Z,1.20
2023-08-29T14:42:18.975Z,1.10
2023-08-29T14:44:46.512Z,1.20
2023-08-29T14:47:14.140Z,0.93
2023-08-29T14:49:41.712Z,1.00
2023-08-29T14:52:09.474Z,1.00
2023-08-29T14:54:38.432Z,1.20
2023-08-29T14:57:08.433Z,1.00
2023-08-29T14:59:36.317Z,0.97
2023-08-29T15:02:04.340Z,1.10
2023-08-29T15:04:31.910Z,1.30
2023-08-29T15:07:01.472Z,1.27
2023-08-29T15:09:29.210Z,1.20
2023-08-29T15:11:58.166Z,1.87
2023-08-29T15:14:25.824Z,1.23
2023-08-29T15:16:53.388Z,1.20
2023-08-29T15:19:21.016Z,1.47
2023-08-29T15:21:48.850Z,1.23
2023-08-29T15:24:16.630Z,1.43
2023-08-29T15:26:46.249Z,1.00
2023-08-29T15:29:18.756Z,1.10
2023-08-29T15:31:46.883Z,1.17
2023-08-29T15:34:14.773Z,1.10
2023-08-29T15:36:42.619Z,1.00
2023-08-29T15:39:10.516Z,1.17
2023-08-29T15:41:38.417Z,1.07
2023-08-29T15:44:06.466Z,1.20
2023-08-29T15:46:35.786Z,0.97
2023-08-29T15:49:04.978Z,1.27
2023-08-29T15:51:34.007Z,1.20
2023-08-29T15:54:01.799Z,1.40
2023-08-29T15:56:30.113Z,1.37
2023-08-29T15:58:58.426Z,1.10
2023-08-29T16:01:27.268Z,1.20
2023-08-29T16:03:56.942Z,1.10
2023-08-29T16:06:24.871Z,1.30
2023-08-29T16:08:52.904Z,1.13
2023-08-29T16:11:21.562Z,1.50
2023-08-29T16:13:49.989Z,1.07
2023-08-29T16:16:18.005Z,1.00
2023-08-29T16:18:46.230Z,1.30
2023-08-29T16:21:17.678Z,1.47
2023-08-29T16:23:46.809Z,1.30
2023-08-29T16:26:16.207Z,1.73
2023-08-29T16:28:44.237Z,1.20
2023-08-29T16:31:12.673Z,1.20
2023-08-29T16:33:40.642Z,1.33
2023-08-29T16:36:08.763Z,1.20
2023-08-29T16:38:38.093Z,1.03
2023-08-29T16:41:06.167Z,1.30
2023-08-29T16:43:33.931Z,1.20
2023-08-29T16:46:02.320Z,1.27
2023-08-29T16:48:30.152Z,1.03
2023-08-29T16:50:57.796Z,1.30
2023-08-29T16:53:25.698Z,1.33
2023-08-29T16:55:54.656Z,1.30
2023-08-29T16:58:22.266Z,1.23
2023-08-29T17:00:50.041Z,0.90
2023-08-29T17:03:17.717Z,1.57
2023-08-29T17:05:45.341Z,1.00
2023-08-29T17:08:13.347Z,1.30
2023-08-29T17:10:41.017Z,1.40
2023-08-29T17:13:10.451Z,1.37
2023-08-29T17:15:38.054Z,1.30
2023-08-29T17:18:06.585Z,1.37
2023-08-29T17:20:34.401Z,1.20
2023-08-29T17:23:02.613Z,1.50
2023-08-29T17:25:30.924Z,1.30
2023-08-29T17:27:59.579Z,1.27
2023-08-29T17:30:28.754Z,1.47
2023-08-29T17:32:56.408Z,1.30
2023-08-29T17:35:24.157Z,1.40
2023-08-29T17:37:51.765Z,1.37
2023-08-29T17:40:19.609Z,1.30
2023-08-29T17:42:47.426Z,1.50
2023-08-29T17:45:16.941Z,1.40
2023-08-29T17:47:45.932Z,1.70
2023-08-29T17:50:14.377Z,1.70
2023-08-29T17:52:41.999Z,2.00
2023-08-29T17:55:10.026Z,1.50
2023-08-29T17:57:39.797Z,1.67
2023-08-29T18:00:08.630Z,1.67
2023-08-29T18:02:37.928Z,1.33
2023-08-29T18:05:07.407Z,1.50
2023-08-29T18:07:35.090Z,1.17
2023-08-29T18:10:12.548Z,1.40
2023-08-29T18:12:40.761Z,1.70
2023-08-29T18:15:10.189Z,1.63
2023-08-29T18:17:38.205Z,1.30
2023-08-29T18:20:08.675Z,1.40
2023-08-29T18:22:37.589Z,1.70
2023-08-29T18:25:05.870Z,1.60
2023-08-29T18:27:33.454Z,1.57
2023-08-29T18:30:01.051Z,1.40
2023-08-29T18:32:32.508Z,1.60
2023-08-29T18:35:00.415Z,1.60
2023-08-29T18:37:29.409Z,1.67
2023-08-29T18:39:57.815Z,2.50
2023-08-29T18:42:25.636Z,2.90
2023-08-29T18:44:53.230Z,2.23
2023-08-29T18:47:20.831Z,2.67
2023-08-29T18:49:48.480Z,2.33
2023-08-29T18:52:17.146Z,1.50
2023-08-29T18:54:46.093Z,1.90
2023-08-29T18:57:13.672Z,1.70
2023-08-29T18:59:41.325Z,1.80
2023-08-29T19:02:11.135Z,2.20
2023-08-29T19:04:39.753Z,2.07
2023-08-29T19:07:08.334Z,1.80
2023-08-29T19:09:36.037Z,2.07
2023-08-29T19:12:05.630Z,2.23
2023-08-29T19:14:33.229Z,1.70
2023-08-29T19:17:00.847Z,2.13
2023-08-29T19:19:28.428Z,1.83
2023-08-29T19:21:56.084Z,1.80
2023-08-29T19:24:23.699Z,2.20
2023-08-29T19:26:51.270Z,2.20
2023-08-29T19:29:20.727Z,1.40
2023-08-29T19:31:48.419Z,1.80
2023-08-29T19:34:16.534Z,2.30
2023-08-29T19:36:44.564Z,2.73
2023-08-29T19:39:17.358Z,3.40
2023-08-29T19:41:45.727Z,3.10
2023-08-29T19:44:17.014Z,2.47
2023-08-29T19:46:46.250Z,2.73
2023-08-29T19:49:13.935Z,2.47
2023-08-29T19:51:41.659Z,2.53
2023-08-29T19:54:09.227Z,2.50
2023-08-29T19:56:36.775Z,2.60
2023-08-29T19:59:04.570Z,2.30
2023-08-29T20:01:32.827Z,4.03
2023-08-29T20:04:01.832Z,2.10
2023-08-29T20:06:29.560Z,3.27
2023-08-29T20:08:57.137Z,2.67
2023-08-29T20:11:24.787Z,2.60
2023-08-29T20:13:52.418Z,2.40
2023-08-29T20:16:20.064Z,2.40
2023-08-29T20:18:47.706Z,2.30
2023-08-29T20:21:17.822Z,2.13
2023-08-29T20:24:00.077Z,2.23
2023-08-29T20:26:30.524Z,2.10
2023-08-29T20:29:00.221Z,1.83
2023-08-29T20:31:28.016Z,2.10
2023-08-29T20:33:55.674Z,2.10
2023-08-29T20:36:24.683Z,2.47
2023-08-29T20:38:52.310Z,2.30
2023-08-29T20:41:20.145Z,2.93
2023-08-29T20:43:47.920Z,2.67
2023-08-29T20:46:16.230Z,2.80
2023-08-29T20:48:43.926Z,2.30
2023-08-29T20:51:11.740Z,2.30
2023-08-29T20:53:40.687Z,2.50
2023-08-29T20:56:08.425Z,2.30
2023-08-29T20:58:36.903Z,2.57
2023-08-29T21:01:05.190Z,2.00
2023-08-29T21:03:34.325Z,2.33
2023-08-29T21:06:02.021Z,2.00
2023-08-29T21:08:30.351Z,2.40
2023-08-29T21:10:59.380Z,2.37
2023-08-29T21:13:27.135Z,2.20
2023-08-29T21:15:55.882Z,2.77
2023-08-29T21:18:23.477Z,2.53
2023-08-29T21:20:53.089Z,2.40
2023-08-29T21:23:20.870Z,2.30
2023-08-29T21:25:49.361Z,2.30
2023-08-29T21:28:19.285Z,2.33
2023-08-29T21:30:47.626Z,2.30
2023-08-29T21:33:15.460Z,2.30
2023-08-29T21:35:44.372Z,2.53
2023-08-29T21:38:12.944Z,2.57
2023-08-29T21:40:42.116Z,2.03
2023-08-29T21:43:10.823Z,2.30
2023-08-29T21:45:41.024Z,2.60
2023-08-29T21:48:10.760Z,2.80
2023-08-29T21:50:39.688Z,2.60
2023-08-29T21:53:08.196Z,2.30
2023-08-29T21:55:36.497Z,2.70
2023-08-29T21:58:05.391Z,2.73
2023-08-29T22:00:34.368Z,2.20
2023-08-29T22:03:04.686Z,2.20
2023-08-29T22:05:33.697Z,2.40
2023-08-29T22:08:01.338Z,2.40
2023-08-29T22:10:28.968Z,2.20
2023-08-29T22:12:56.563Z,2.37
2023-08-29T22:15:24.122Z,3.10
2023-08-29T22:17:51.801Z,2.30
2023-08-29T22:20:20.794Z,2.43
2023-08-29T22:22:51.259Z,3.10
2023-08-29T22:25:19.246Z,2.50
2023-08-29T22:27:46.991Z,2.90
2023-08-29T22:30:16.030Z,2.37
2023-08-29T22:32:44.074Z,3.00
2023-08-29T22:35:12.020Z,2.50
2023-08-29T22:37:40.922Z,3.13
2023-08-29T22:40:10.183Z,2.77
2023-08-29T22:42:37.772Z,2.17
2023-08-29T22:45:06.224Z,2.37
2023-08-29T22:47:33.832Z,2.47
2023-08-29T22:50:01.453Z,2.20
2023-08-29T22:52:29.004Z,2.60
2023-08-29T22:54:57.983Z,2.40
2023-08-29T22:57:25.858Z,2.37
2023-08-29T22:59:53.397Z,2.53
2023-08-29T23:02:21.503Z,2.20
2023-08-29T23:04:49.073Z,2.60
2023-08-29T23:07:16.669Z,2.67
2023-08-29T23:09:44.397Z,2.97
2023-08-29T23:12:13.371Z,2.87
2023-08-29T23:14:41.030Z,2.20
2023-08-29T23:17:11.370Z,2.37
2023-08-29T23:19:39.154Z,2.00
2023-08-29T23:22:06.945Z,2.40
2023-08-29T23:24:34.887Z,2.40
2023-08-29T23:27:04.315Z,2.90
2023-08-29T23:29:34.587Z,2.70
2023-08-29T23:32:02.140Z,2.80
2023-08-29T23:34:29.690Z,2.67
2023-08-29T23:36:57.235Z,2.60
2023-08-29T23:39:24.933Z,3.00
2023-08-29T23:41:53.293Z,2.80
2023-08-29T23:44:21.000Z,3.30
2023-08-29T23:46:49.960Z,3.00
2023-08-29T23:49:17.820Z,2.80
2023-08-29T23:51:45.391Z,2.73
2023-08-29T23:54:13.073Z,2.40
2023-08-29T23:56:40.669Z,2.27
2023-08-29T23:59:08.289Z,3.27
